sensor_id;sensor_type;location;lat;lon;timestamp;pressure;altitude;pressure_sealevel;temperature;humidity
49423;BME280;36998;51.974;20.150;2022-10-03T00:00:37;99509.03;;;11.75;75.96
49423;BME280;36998;51.974;20.150;2022-10-03T00:05:50;99506.28;;;11.90;75.57
49423;BME280;36998;51.974;20.150;2022-10-03T00:16:59;99499.88;;;12.12;75.18
49423;BME280;36998;51.974;20.150;2022-10-03T00:19:42;99509.88;;;12.12;75.28
49423;BME280;36998;51.974;20.150;2022-10-03T00:25:05;99508.06;;;12.19;75.11
49423;BME280;36998;51.974;20.150;2022-10-03T00:27:47;99503.69;;;12.18;74.87
49423;BME280;36998;51.974;20.150;2022-10-03T00:30:20;99507.50;;;12.24;74.65
49423;BME280;36998;51.974;20.150;2022-10-03T00:33:15;99510.38;;;12.22;74.94
49423;BME280;36998;51.974;20.150;2022-10-03T00:36:02;99506.41;;;12.18;74.46
49423;BME280;36998;51.974;20.150;2022-10-03T00:41:29;99501.09;;;11.88;75.18
49423;BME280;36998;51.974;20.150;2022-10-03T00:46:38;99477.59;;;11.74;74.75
49423;BME280;36998;51.974;20.150;2022-10-03T00:52:28;99466.78;;;11.59;75.26
49423;BME280;36998;51.974;20.150;2022-10-03T00:55:13;99475.75;;;11.60;75.22
49423;BME280;36998;51.974;20.150;2022-10-03T00:57:58;99479.28;;;11.60;75.16
49423;BME280;36998;51.974;20.150;2022-10-03T01:00:30;99480.03;;;11.54;75.08
49423;BME280;36998;51.974;20.150;2022-10-03T01:08:15;99486.34;;;11.76;75.32
49423;BME280;36998;51.974;20.150;2022-10-03T01:14:07;99468.69;;;11.80;75.44
49423;BME280;36998;51.974;20.150;2022-10-03T01:16:49;99461.81;;;11.78;75.21
49423;BME280;36998;51.974;20.150;2022-10-03T01:24:53;99470.09;;;11.91;75.02
49423;BME280;36998;51.974;20.150;2022-10-03T01:27:39;99476.44;;;11.98;75.04
49423;BME280;36998;51.974;20.150;2022-10-03T01:30:39;99469.78;;;12.01;74.93
49423;BME280;36998;51.974;20.150;2022-10-03T01:33:17;99468.38;;;12.05;74.32
49423;BME280;36998;51.974;20.150;2022-10-03T01:38:38;99464.44;;;12.07;74.46
49423;BME280;36998;51.974;20.150;2022-10-03T01:41:16;99473.03;;;12.11;74.31
49423;BME280;36998;51.974;20.150;2022-10-03T01:43:53;99461.53;;;12.09;74.29
49423;BME280;36998;51.974;20.150;2022-10-03T01:46:22;99466.38;;;11.92;74.95
49423;BME280;36998;51.974;20.150;2022-10-03T01:49:16;99473.13;;;12.03;74.84
49423;BME280;36998;51.974;20.150;2022-10-03T01:52:17;99472.69;;;11.99;74.82
49423;BME280;36998;51.974;20.150;2022-10-03T01:55:02;99464.00;;;12.04;74.39
49423;BME280;36998;51.974;20.150;2022-10-03T01:58:35;99483.00;;;12.10;74.46
49423;BME280;36998;51.974;20.150;2022-10-03T02:01:01;99467.00;;;12.15;73.91
49423;BME280;36998;51.974;20.150;2022-10-03T02:10:05;99462.56;;;12.08;74.07
49423;BME280;36998;51.974;20.150;2022-10-03T02:13:11;99458.25;;;12.13;73.75
49423;BME280;36998;51.974;20.150;2022-10-03T02:18:46;99450.16;;;12.13;74.00
49423;BME280;36998;51.974;20.150;2022-10-03T02:23:46;99470.81;;;12.21;73.16
49423;BME280;36998;51.974;20.150;2022-10-03T02:26:30;99452.25;;;12.18;73.56
49423;BME280;36998;51.974;20.150;2022-10-03T02:37:37;99457.56;;;11.54;75.21
49423;BME280;36998;51.974;20.150;2022-10-03T02:40:30;99451.25;;;11.46;75.68
49423;BME280;36998;51.974;20.150;2022-10-03T02:43:39;99457.78;;;11.37;76.15
49423;BME280;36998;51.974;20.150;2022-10-03T02:46:44;99445.88;;;11.32;76.57
49423;BME280;36998;51.974;20.150;2022-10-03T02:52:31;99461.34;;;11.23;76.85
49423;BME280;36998;51.974;20.150;2022-10-03T02:58:27;99454.00;;;11.17;78.04
49423;BME280;36998;51.974;20.150;2022-10-03T03:05:00;99441.75;;;11.21;77.60
49423;BME280;36998;51.974;20.150;2022-10-03T03:10:11;99441.22;;;11.11;78.51
49423;BME280;36998;51.974;20.150;2022-10-03T03:15:36;99428.25;;;11.21;78.27
49423;BME280;36998;51.974;20.150;2022-10-03T03:29:44;99417.06;;;11.24;78.45
49423;BME280;36998;51.974;20.150;2022-10-03T03:35:22;99423.22;;;11.33;78.38
49423;BME280;36998;51.974;20.150;2022-10-03T03:41:04;99416.59;;;11.35;78.23
49423;BME280;36998;51.974;20.150;2022-10-03T03:49:55;99399.13;;;11.38;78.54
49423;BME280;36998;51.974;20.150;2022-10-03T03:55:30;99414.53;;;11.37;79.01
49423;BME280;36998;51.974;20.150;2022-10-03T03:58:32;99417.13;;;11.45;79.09
49423;BME280;36998;51.974;20.150;2022-10-03T04:06:52;99405.25;;;11.61;78.39
49423;BME280;36998;51.974;20.150;2022-10-03T04:12:22;99419.09;;;11.73;78.51
49423;BME280;36998;51.974;20.150;2022-10-03T04:15:02;99416.66;;;11.78;78.55
49423;BME280;36998;51.974;20.150;2022-10-03T04:20:50;99402.19;;;11.86;77.86
49423;BME280;36998;51.974;20.150;2022-10-03T04:23:28;99410.81;;;11.96;77.52
49423;BME280;36998;51.974;20.150;2022-10-03T04:34:31;99383.88;;;12.09;77.23
49423;BME280;36998;51.974;20.150;2022-10-03T04:42:46;99397.63;;;12.08;77.86
49423;BME280;36998;51.974;20.150;2022-10-03T04:45:38;99390.00;;;12.18;77.60
49423;BME280;36998;51.974;20.150;2022-10-03T04:50:41;99391.31;;;12.01;77.83
49423;BME280;36998;51.974;20.150;2022-10-03T04:53:28;99398.53;;;11.93;77.85
49423;BME280;36998;51.974;20.150;2022-10-03T04:56:21;99392.75;;;11.82;78.36
49423;BME280;36998;51.974;20.150;2022-10-03T05:01:32;99391.56;;;11.84;78.64
49423;BME280;36998;51.974;20.150;2022-10-03T05:04:14;99389.84;;;11.83;78.70
49423;BME280;36998;51.974;20.150;2022-10-03T05:06:51;99392.66;;;11.90;78.55
49423;BME280;36998;51.974;20.150;2022-10-03T05:09:34;99370.88;;;11.98;78.10
49423;BME280;36998;51.974;20.150;2022-10-03T05:28:48;99372.97;;;11.60;80.03
49423;BME280;36998;51.974;20.150;2022-10-03T05:31:25;99372.47;;;11.71;79.32
49423;BME280;36998;51.974;20.150;2022-10-03T05:40:02;99396.28;;;11.82;79.58
49423;BME280;36998;51.974;20.150;2022-10-03T05:42:42;99378.28;;;11.89;79.15
49423;BME280;36998;51.974;20.150;2022-10-03T05:45:52;99386.47;;;11.96;78.99
49423;BME280;36998;51.974;20.150;2022-10-03T05:48:32;99368.69;;;12.08;78.78
49423;BME280;36998;51.974;20.150;2022-10-03T05:51:22;99375.69;;;12.24;78.12
49423;BME280;36998;51.974;20.150;2022-10-03T05:54:28;99380.75;;;12.34;77.95
49423;BME280;36998;51.974;20.150;2022-10-03T05:57:24;99375.13;;;12.35;77.45
49423;BME280;36998;51.974;20.150;2022-10-03T06:00:04;99384.16;;;12.43;77.53
49423;BME280;36998;51.974;20.150;2022-10-03T06:08:43;99359.44;;;12.94;76.22
49423;BME280;36998;51.974;20.150;2022-10-03T06:11:20;99367.81;;;12.99;76.23
49423;BME280;36998;51.974;20.150;2022-10-03T06:16:56;99357.59;;;13.01;76.06
49423;BME280;36998;51.974;20.150;2022-10-03T06:19:47;99377.28;;;13.16;75.38
49423;BME280;36998;51.974;20.150;2022-10-03T06:30:48;99369.25;;;13.36;74.31
49423;BME280;36998;51.974;20.150;2022-10-03T06:36:20;99355.69;;;13.43;73.79
49423;BME280;36998;51.974;20.150;2022-10-03T06:42:17;99380.06;;;12.95;74.99
49423;BME280;36998;51.974;20.150;2022-10-03T06:47:43;99377.22;;;12.33;77.33
49423;BME280;36998;51.974;20.150;2022-10-03T06:55:53;99351.28;;;11.96;78.42
49423;BME280;36998;51.974;20.150;2022-10-03T06:58:56;99379.59;;;11.93;78.54
49423;BME280;36998;51.974;20.150;2022-10-03T07:04:35;99396.41;;;11.89;78.84
49423;BME280;36998;51.974;20.150;2022-10-03T07:15:25;99402.22;;;11.71;80.48
49423;BME280;36998;51.974;20.150;2022-10-03T07:24:13;99388.38;;;11.81;80.63
49423;BME280;36998;51.974;20.150;2022-10-03T07:30:02;99388.06;;;11.69;80.87
49423;BME280;36998;51.974;20.150;2022-10-03T07:32:55;99380.91;;;11.83;80.72
49423;BME280;36998;51.974;20.150;2022-10-03T07:35:41;99385.84;;;11.79;81.30
49423;BME280;36998;51.974;20.150;2022-10-03T07:44:42;99395.88;;;11.64;81.71
49423;BME280;36998;51.974;20.150;2022-10-03T07:53:15;99399.16;;;11.74;82.19
49423;BME280;36998;51.974;20.150;2022-10-03T07:56:08;99410.19;;;11.94;82.08
49423;BME280;36998;51.974;20.150;2022-10-03T07:58:54;99394.91;;;12.08;81.54
49423;BME280;36998;51.974;20.150;2022-10-03T08:04:28;99385.91;;;12.29;81.68
49423;BME280;36998;51.974;20.150;2022-10-03T08:07:12;99404.34;;;12.40;81.68
49423;BME280;36998;51.974;20.150;2022-10-03T08:15:38;99404.06;;;13.32;79.50
49423;BME280;36998;51.974;20.150;2022-10-03T08:18:33;99400.16;;;13.42;79.15
49423;BME280;36998;51.974;20.150;2022-10-03T08:21:02;99405.88;;;13.73;77.92
49423;BME280;36998;51.974;20.150;2022-10-03T08:24:04;99398.16;;;13.70;77.90
49423;BME280;36998;51.974;20.150;2022-10-03T08:29:52;99409.97;;;13.49;77.19
49423;BME280;36998;51.974;20.150;2022-10-03T08:35:52;99409.81;;;13.57;76.66
49423;BME280;36998;51.974;20.150;2022-10-03T08:38:37;99440.53;;;13.71;75.70
49423;BME280;36998;51.974;20.150;2022-10-03T09:01:19;99398.34;;;15.02;71.44
49423;BME280;36998;51.974;20.150;2022-10-03T09:04:08;99399.81;;;15.04;71.47
49423;BME280;36998;51.974;20.150;2022-10-03T09:06:59;99423.78;;;15.34;70.42
49423;BME280;36998;51.974;20.150;2022-10-03T09:15:41;99416.06;;;15.69;68.88
49423;BME280;36998;51.974;20.150;2022-10-03T09:21:30;99404.97;;;15.71;68.34
49423;BME280;36998;51.974;20.150;2022-10-03T09:29:54;99430.59;;;14.45;70.81
49423;BME280;36998;51.974;20.150;2022-10-03T09:32:40;99433.94;;;14.27;70.50
49423;BME280;36998;51.974;20.150;2022-10-03T09:35:46;99442.66;;;14.02;70.95
49423;BME280;36998;51.974;20.150;2022-10-03T09:44:19;99468.75;;;13.84;71.87
49423;BME280;36998;51.974;20.150;2022-10-03T09:46:58;99425.50;;;13.75;72.26
49423;BME280;36998;51.974;20.150;2022-10-03T09:52:55;99472.34;;;13.43;73.13
49423;BME280;36998;51.974;20.150;2022-10-03T09:55:44;99467.38;;;13.59;73.11
49423;BME280;36998;51.974;20.150;2022-10-03T10:01:40;99481.44;;;13.83;72.93
49423;BME280;36998;51.974;20.150;2022-10-03T10:07:33;99478.69;;;14.78;71.73
49423;BME280;36998;51.974;20.150;2022-10-03T10:13:11;99464.00;;;15.18;69.73
49423;BME280;36998;51.974;20.150;2022-10-03T10:16:03;99470.16;;;15.52;68.79
49423;BME280;36998;51.974;20.150;2022-10-03T10:27:09;99514.53;;;15.46;66.42
49423;BME280;36998;51.974;20.150;2022-10-03T10:30:08;99499.06;;;15.53;66.34
49423;BME280;36998;51.974;20.150;2022-10-03T10:36:15;99493.59;;;15.66;64.72
49423;BME280;36998;51.974;20.150;2022-10-03T10:39:26;99516.84;;;15.49;64.18
49423;BME280;36998;51.974;20.150;2022-10-03T10:42:44;99505.78;;;15.44;63.79
49423;BME280;36998;51.974;20.150;2022-10-03T10:48:40;99505.44;;;14.74;66.24
49423;BME280;36998;51.974;20.150;2022-10-03T10:51:41;99520.91;;;14.60;67.16
49423;BME280;36998;51.974;20.150;2022-10-03T10:57:08;99539.19;;;14.12;67.51
49423;BME280;36998;51.974;20.150;2022-10-03T11:03:29;99545.44;;;14.05;67.96
49423;BME280;36998;51.974;20.150;2022-10-03T11:06:37;99549.97;;;14.53;67.50
49423;BME280;36998;51.974;20.150;2022-10-03T11:18:22;99549.31;;;16.79;61.60
49423;BME280;36998;51.974;20.150;2022-10-03T11:21:26;99549.22;;;17.17;60.29
49423;BME280;36998;51.974;20.150;2022-10-03T11:24:18;99551.81;;;17.49;58.92
49423;BME280;36998;51.974;20.150;2022-10-03T11:27:26;99550.03;;;17.18;59.07
49423;BME280;36998;51.974;20.150;2022-10-03T11:30:33;99543.25;;;17.27;58.71
49423;BME280;36998;51.974;20.150;2022-10-03T11:33:40;99550.56;;;17.26;58.04
49423;BME280;36998;51.974;20.150;2022-10-03T11:36:31;99550.50;;;19.09;52.96
49423;BME280;36998;51.974;20.150;2022-10-03T11:39:08;99533.22;;;20.76;48.47
49423;BME280;36998;51.974;20.150;2022-10-03T11:41:46;99544.50;;;20.34;48.36
49423;BME280;36998;51.974;20.150;2022-10-03T11:44:36;99550.84;;;21.70;44.57
49423;BME280;36998;51.974;20.150;2022-10-03T11:47:31;99527.69;;;21.44;45.10
49423;BME280;36998;51.974;20.150;2022-10-03T11:50:22;99537.53;;;20.15;46.82
49423;BME280;36998;51.974;20.150;2022-10-03T11:53:10;99548.03;;;19.07;48.56
49423;BME280;36998;51.974;20.150;2022-10-03T11:55:54;99567.06;;;18.30;49.30
49423;BME280;36998;51.974;20.150;2022-10-03T11:58:31;99579.97;;;17.68;50.30
49423;BME280;36998;51.974;20.150;2022-10-03T12:01:12;99588.56;;;17.28;51.56
49423;BME280;36998;51.974;20.150;2022-10-03T12:03:51;99613.66;;;16.87;54.29
49423;BME280;36998;51.974;20.150;2022-10-03T12:09:23;99624.22;;;14.80;63.17
49423;BME280;36998;51.974;20.150;2022-10-03T12:11:59;99631.28;;;14.55;64.31
49423;BME280;36998;51.974;20.150;2022-10-03T12:14:33;99633.03;;;14.27;66.22
49423;BME280;36998;51.974;20.150;2022-10-03T12:17:12;99647.56;;;14.00;68.00
49423;BME280;36998;51.974;20.150;2022-10-03T12:19:55;99635.56;;;13.81;68.66
49423;BME280;36998;51.974;20.150;2022-10-03T12:25:31;99648.66;;;13.21;69.95
49423;BME280;36998;51.974;20.150;2022-10-03T12:28:24;99645.19;;;13.06;70.44
49423;BME280;36998;51.974;20.150;2022-10-03T12:30:58;99655.09;;;12.92;71.21
49423;BME280;36998;51.974;20.150;2022-10-03T12:33:36;99654.59;;;13.10;71.46
49423;BME280;36998;51.974;20.150;2022-10-03T12:36:13;99633.88;;;13.80;70.01
49423;BME280;36998;51.974;20.150;2022-10-03T12:38:54;99625.53;;;15.04;68.57
49423;BME280;36998;51.974;20.150;2022-10-03T12:44:28;99626.91;;;18.68;60.29
49423;BME280;36998;51.974;20.150;2022-10-03T12:47:23;99624.34;;;19.51;59.97
49423;BME280;36998;51.974;20.150;2022-10-03T12:50:06;99611.16;;;21.98;54.76
49423;BME280;36998;51.974;20.150;2022-10-03T12:56:06;99614.59;;;25.30;47.24
49423;BME280;36998;51.974;20.150;2022-10-03T13:01:20;99615.22;;;26.32;43.73
49423;BME280;36998;51.974;20.150;2022-10-03T13:03:53;99620.09;;;25.71;44.14
49423;BME280;36998;51.974;20.150;2022-10-03T13:09:24;99630.34;;;25.39;42.24
49423;BME280;36998;51.974;20.150;2022-10-03T13:12:03;99628.97;;;25.16;41.53
49423;BME280;36998;51.974;20.150;2022-10-03T13:20:24;99639.53;;;20.29;46.22
49423;BME280;36998;51.974;20.150;2022-10-03T13:23:03;99646.72;;;19.48;47.35
49423;BME280;36998;51.974;20.150;2022-10-03T13:25:42;99659.41;;;19.72;47.48
49423;BME280;36998;51.974;20.150;2022-10-03T13:28:16;99667.19;;;19.33;48.09
49423;BME280;36998;51.974;20.150;2022-10-03T13:30:52;99674.56;;;18.61;49.32
49423;BME280;36998;51.974;20.150;2022-10-03T13:33:23;99686.28;;;18.13;50.19
49423;BME280;36998;51.974;20.150;2022-10-03T13:35:53;99670.63;;;17.83;51.17
49423;BME280;36998;51.974;20.150;2022-10-03T13:38:54;99665.00;;;17.71;51.73
49423;BME280;36998;51.974;20.150;2022-10-03T13:44:37;99669.41;;;16.97;52.59
49423;BME280;36998;51.974;20.150;2022-10-03T13:47:32;99689.50;;;17.60;52.31
49423;BME280;36998;51.974;20.150;2022-10-03T13:50:00;99683.88;;;17.54;51.29
49423;BME280;36998;51.974;20.150;2022-10-03T13:52:44;99698.38;;;17.30;51.59
49423;BME280;36998;51.974;20.150;2022-10-03T13:55:22;99697.50;;;17.29;51.37
49423;BME280;36998;51.974;20.150;2022-10-03T14:00:21;99700.22;;;17.04;51.96
49423;BME280;36998;51.974;20.150;2022-10-03T14:08:22;99702.75;;;16.99;51.73
49423;BME280;36998;51.974;20.150;2022-10-03T14:11:04;99697.06;;;16.62;52.03
49423;BME280;36998;51.974;20.150;2022-10-03T14:13:59;99708.31;;;16.73;52.14
49423;BME280;36998;51.974;20.150;2022-10-03T14:16:58;99718.66;;;16.57;52.58
49423;BME280;36998;51.974;20.150;2022-10-03T14:19:50;99728.22;;;16.35;52.82
49423;BME280;36998;51.974;20.150;2022-10-03T14:25:25;99736.03;;;15.91;54.45
49423;BME280;36998;51.974;20.150;2022-10-03T14:27:56;99741.69;;;15.37;57.45
49423;BME280;36998;51.974;20.150;2022-10-03T14:30:33;99745.81;;;14.51;62.21
49423;BME280;36998;51.974;20.150;2022-10-03T14:33:42;99763.16;;;13.88;65.07
49423;BME280;36998;51.974;20.150;2022-10-03T14:39:23;99769.44;;;13.24;67.22
49423;BME280;36998;51.974;20.150;2022-10-03T14:44:35;99789.72;;;12.55;71.00
49423;BME280;36998;51.974;20.150;2022-10-03T14:47:07;99773.75;;;12.46;70.08
49423;BME280;36998;51.974;20.150;2022-10-03T14:49:37;99783.94;;;12.44;70.72
49423;BME280;36998;51.974;20.150;2022-10-03T14:52:27;99778.34;;;12.30;71.78
49423;BME280;36998;51.974;20.150;2022-10-03T14:55:02;99782.81;;;12.38;71.22
49423;BME280;36998;51.974;20.150;2022-10-03T14:57:35;99783.56;;;12.47;71.34
49423;BME280;36998;51.974;20.150;2022-10-03T15:00:02;99795.41;;;12.60;71.41
49423;BME280;36998;51.974;20.150;2022-10-03T15:02:32;99775.72;;;12.88;72.23
49423;BME280;36998;51.974;20.150;2022-10-03T15:05:09;99797.19;;;13.62;71.78
49423;BME280;36998;51.974;20.150;2022-10-03T15:07:39;99787.50;;;14.65;70.39
49423;BME280;36998;51.974;20.150;2022-10-03T15:10:11;99774.59;;;15.75;69.26
49423;BME280;36998;51.974;20.150;2022-10-03T15:12:43;99782.97;;;15.87;67.85
49423;BME280;36998;51.974;20.150;2022-10-03T15:15:15;99782.69;;;15.35;68.10
49423;BME280;36998;51.974;20.150;2022-10-03T15:17:45;99788.03;;;14.95;68.08
49423;BME280;36998;51.974;20.150;2022-10-03T15:20:16;99787.72;;;14.70;67.80
49423;BME280;36998;51.974;20.150;2022-10-03T15:22:50;99791.00;;;14.52;67.27
49423;BME280;36998;51.974;20.150;2022-10-03T15:25:25;99798.09;;;14.25;67.33
49423;BME280;36998;51.974;20.150;2022-10-03T15:27:53;99799.66;;;14.07;67.22
49423;BME280;36998;51.974;20.150;2022-10-03T15:30:29;99802.22;;;13.87;68.02
49423;BME280;36998;51.974;20.150;2022-10-03T15:33:10;99804.94;;;13.65;68.01
49423;BME280;36998;51.974;20.150;2022-10-03T15:35:40;99810.19;;;13.45;68.46
49423;BME280;36998;51.974;20.150;2022-10-03T15:38:12;99810.28;;;13.37;68.65
49423;BME280;36998;51.974;20.150;2022-10-03T15:40:49;99804.56;;;13.25;69.12
49423;BME280;36998;51.974;20.150;2022-10-03T15:43:35;99816.72;;;13.15;69.07
49423;BME280;36998;51.974;20.150;2022-10-03T15:46:25;99813.66;;;13.03;69.57
49423;BME280;36998;51.974;20.150;2022-10-03T15:48:53;99820.50;;;12.99;69.65
49423;BME280;36998;51.974;20.150;2022-10-03T15:51:23;99815.84;;;12.93;69.73
49423;BME280;36998;51.974;20.150;2022-10-03T15:53:52;99823.84;;;13.01;69.47
49423;BME280;36998;51.974;20.150;2022-10-03T15:56:25;99815.78;;;13.07;68.98
49423;BME280;36998;51.974;20.150;2022-10-03T15:58:58;99826.47;;;13.09;69.39
49423;BME280;36998;51.974;20.150;2022-10-03T16:01:38;99822.56;;;12.97;68.96
49423;BME280;36998;51.974;20.150;2022-10-03T16:04:22;99820.41;;;12.92;69.41
49423;BME280;36998;51.974;20.150;2022-10-03T16:09:34;99835.75;;;12.70;69.52
49423;BME280;36998;51.974;20.150;2022-10-03T16:15:09;99833.81;;;12.49;69.97
49423;BME280;36998;51.974;20.150;2022-10-03T16:17:55;99834.94;;;12.40;69.80
49423;BME280;36998;51.974;20.150;2022-10-03T16:20:36;99831.47;;;12.31;69.98
49423;BME280;36998;51.974;20.150;2022-10-03T16:23:31;99835.28;;;12.22;70.52
49423;BME280;36998;51.974;20.150;2022-10-03T16:26:21;99846.25;;;12.06;71.18
49423;BME280;36998;51.974;20.150;2022-10-03T16:29:11;99856.25;;;12.05;70.77
49423;BME280;36998;51.974;20.150;2022-10-03T16:31:44;99853.91;;;12.02;70.74
49423;BME280;36998;51.974;20.150;2022-10-03T16:34:16;99858.03;;;11.98;71.11
49423;BME280;36998;51.974;20.150;2022-10-03T16:36:47;99865.88;;;12.08;70.83
49423;BME280;36998;51.974;20.150;2022-10-03T16:39:23;99856.38;;;12.12;70.70
49423;BME280;36998;51.974;20.150;2022-10-03T16:41:53;99851.63;;;12.14;70.71
49423;BME280;36998;51.974;20.150;2022-10-03T16:44:23;99862.56;;;12.21;70.64
49423;BME280;36998;51.974;20.150;2022-10-03T16:46:52;99863.59;;;11.97;70.93
49423;BME280;36998;51.974;20.150;2022-10-03T16:49:32;99865.56;;;11.88;70.99
49423;BME280;36998;51.974;20.150;2022-10-03T16:52:21;99862.69;;;11.81;70.90
49423;BME280;36998;51.974;20.150;2022-10-03T16:54:57;99862.59;;;11.75;71.39
49423;BME280;36998;51.974;20.150;2022-10-03T16:57:29;99859.56;;;11.69;71.35
49423;BME280;36998;51.974;20.150;2022-10-03T16:59:58;99870.94;;;11.65;71.31
49423;BME280;36998;51.974;20.150;2022-10-03T17:02:30;99868.97;;;11.59;71.55
49423;BME280;36998;51.974;20.150;2022-10-03T17:05:05;99877.44;;;11.56;71.15
49423;BME280;36998;51.974;20.150;2022-10-03T17:07:38;99881.53;;;11.52;71.31
49423;BME280;36998;51.974;20.150;2022-10-03T17:12:57;99880.72;;;11.43;71.04
49423;BME280;36998;51.974;20.150;2022-10-03T17:15:29;99883.28;;;11.36;71.33
49423;BME280;36998;51.974;20.150;2022-10-03T17:18:02;99881.13;;;11.32;71.53
49423;BME280;36998;51.974;20.150;2022-10-03T17:20:41;99884.19;;;11.29;71.23
49423;BME280;36998;51.974;20.150;2022-10-03T17:23:42;99883.72;;;11.25;71.59
49423;BME280;36998;51.974;20.150;2022-10-03T17:26:19;99881.53;;;11.20;71.59
49423;BME280;36998;51.974;20.150;2022-10-03T17:28:59;99880.88;;;11.18;71.87
49423;BME280;36998;51.974;20.150;2022-10-03T17:31:30;99882.06;;;11.16;71.65
49423;BME280;36998;51.974;20.150;2022-10-03T17:34:08;99881.38;;;11.14;71.63
49423;BME280;36998;51.974;20.150;2022-10-03T17:39:32;99880.75;;;11.12;72.07
49423;BME280;36998;51.974;20.150;2022-10-03T17:42:22;99887.16;;;11.11;72.32
49423;BME280;36998;51.974;20.150;2022-10-03T17:45:10;99885.81;;;11.07;72.26
49423;BME280;36998;51.974;20.150;2022-10-03T17:47:52;99891.03;;;11.08;72.59
49423;BME280;36998;51.974;20.150;2022-10-03T17:50:31;99892.56;;;11.11;72.42
49423;BME280;36998;51.974;20.150;2022-10-03T17:53:17;99894.00;;;11.21;72.66
49423;BME280;36998;51.974;20.150;2022-10-03T17:55:45;99891.41;;;11.36;72.50
49423;BME280;36998;51.974;20.150;2022-10-03T17:58:16;99903.31;;;11.50;72.69
49423;BME280;36998;51.974;20.150;2022-10-03T18:01:19;99894.09;;;11.67;72.22
49423;BME280;36998;51.974;20.150;2022-10-03T18:03:59;99899.63;;;11.74;72.23
49423;BME280;36998;51.974;20.150;2022-10-03T18:06:37;99898.94;;;11.72;72.45
49423;BME280;36998;51.974;20.150;2022-10-03T18:11:39;99901.59;;;11.80;72.30
49423;BME280;36998;51.974;20.150;2022-10-03T18:14:22;99901.22;;;11.91;72.40
49423;BME280;36998;51.974;20.150;2022-10-03T18:19:32;99900.66;;;11.96;72.31
49423;BME280;36998;51.974;20.150;2022-10-03T18:22:31;99907.66;;;11.90;72.57
49423;BME280;36998;51.974;20.150;2022-10-03T18:25:07;99908.19;;;11.86;72.46
49423;BME280;36998;51.974;20.150;2022-10-03T18:28:06;99914.28;;;11.80;72.76
49423;BME280;36998;51.974;20.150;2022-10-03T18:30:44;99906.84;;;11.82;72.89
49423;BME280;36998;51.974;20.150;2022-10-03T18:33:18;99905.66;;;11.84;72.86
49423;BME280;36998;51.974;20.150;2022-10-03T18:35:46;99904.97;;;11.82;73.30
49423;BME280;36998;51.974;20.150;2022-10-03T18:38:18;99907.16;;;11.87;73.16
49423;BME280;36998;51.974;20.150;2022-10-03T18:40:48;99902.44;;;11.81;72.79
49423;BME280;36998;51.974;20.150;2022-10-03T18:43:32;99901.78;;;11.79;73.03
49423;BME280;36998;51.974;20.150;2022-10-03T18:46:08;99899.91;;;11.87;72.76
49423;BME280;36998;51.974;20.150;2022-10-03T18:48:56;99893.69;;;12.02;72.78
49423;BME280;36998;51.974;20.150;2022-10-03T18:51:30;99901.06;;;12.08;73.09
49423;BME280;36998;51.974;20.150;2022-10-03T18:54:02;99907.28;;;12.16;73.43
49423;BME280;36998;51.974;20.150;2022-10-03T18:56:29;99911.75;;;12.24;73.43
49423;BME280;36998;51.974;20.150;2022-10-03T18:59:06;99904.56;;;12.31;72.96
49423;BME280;36998;51.974;20.150;2022-10-03T19:01:52;99915.25;;;12.33;73.31
49423;BME280;36998;51.974;20.150;2022-10-03T19:06:52;99909.00;;;12.47;73.02
49423;BME280;36998;51.974;20.150;2022-10-03T19:09:25;99901.03;;;12.46;73.18
49423;BME280;36998;51.974;20.150;2022-10-03T19:11:59;99901.81;;;12.39;73.43
49423;BME280;36998;51.974;20.150;2022-10-03T19:14:50;99907.22;;;12.39;73.60
49423;BME280;36998;51.974;20.150;2022-10-03T19:17:32;99916.34;;;12.38;73.34
49423;BME280;36998;51.974;20.150;2022-10-03T19:22:57;99908.75;;;12.19;73.53
49423;BME280;36998;51.974;20.150;2022-10-03T19:25:24;99918.00;;;12.10;73.51
49423;BME280;36998;51.974;20.150;2022-10-03T19:28:18;99914.28;;;12.03;73.61
49423;BME280;36998;51.974;20.150;2022-10-03T19:30:56;99922.66;;;11.93;73.88
49423;BME280;36998;51.974;20.150;2022-10-03T19:33:25;99922.22;;;11.81;73.97
49423;BME280;36998;51.974;20.150;2022-10-03T19:35:54;99913.16;;;11.74;74.08
49423;BME280;36998;51.974;20.150;2022-10-03T19:38:51;99919.28;;;11.68;74.07
49423;BME280;36998;51.974;20.150;2022-10-03T19:43:47;99922.72;;;11.54;74.30
49423;BME280;36998;51.974;20.150;2022-10-03T19:46:18;99922.44;;;11.48;74.19
49423;BME280;36998;51.974;20.150;2022-10-03T19:49:05;99918.56;;;11.43;74.52
49423;BME280;36998;51.974;20.150;2022-10-03T19:51:39;99919.13;;;11.38;74.68
49423;BME280;36998;51.974;20.150;2022-10-03T19:54:12;99922.53;;;11.32;75.06
49423;BME280;36998;51.974;20.150;2022-10-03T19:56:39;99920.00;;;11.31;75.00
49423;BME280;36998;51.974;20.150;2022-10-03T19:59:13;99922.22;;;11.27;74.88
49423;BME280;36998;51.974;20.150;2022-10-03T20:01:44;99922.41;;;11.25;75.01
49423;BME280;36998;51.974;20.150;2022-10-03T20:04:11;99924.06;;;11.27;74.68
49423;BME280;36998;51.974;20.150;2022-10-03T20:06:55;99925.09;;;11.25;74.91
49423;BME280;36998;51.974;20.150;2022-10-03T20:09:27;99924.44;;;11.23;75.26
49423;BME280;36998;51.974;20.150;2022-10-03T20:12:07;99916.81;;;11.27;75.51
49423;BME280;36998;51.974;20.150;2022-10-03T20:14:35;99917.13;;;11.32;75.23
49423;BME280;36998;51.974;20.150;2022-10-03T20:17:03;99916.56;;;11.37;75.30
49423;BME280;36998;51.974;20.150;2022-10-03T20:19:42;99918.03;;;11.47;75.55
49423;BME280;36998;51.974;20.150;2022-10-03T20:22:12;99920.22;;;11.52;75.41
49423;BME280;36998;51.974;20.150;2022-10-03T20:24:42;99919.03;;;11.55;75.84
49423;BME280;36998;51.974;20.150;2022-10-03T20:27:32;99907.63;;;11.67;75.60